sensor_id;sensor_type;location;lat;lon;timestamp;pressure;altitude;pressure_sealevel;temperature;humidity
50356;BME280;36264;51.296;-0.602;2023-05-14T14:14:03;101601.78;;;26.86;46.91
50356;BME280;36264;51.296;-0.602;2023-05-14T14:16:29;101596.72;;;26.83;46.59
50356;BME280;36264;51.296;-0.602;2023-05-14T14:18:54;101586.56;;;26.77;46.74
50356;BME280;36264;51.296;-0.602;2023-05-14T14:21:20;101576.66;;;26.79;46.53
50356;BME280;36264;51.296;-0.602;2023-05-14T14:23:45;101576.91;;;26.76;46.73
50356;BME280;36264;51.296;-0.602;2023-05-14T14:26:11;101570.78;;;26.64;46.31
50356;BME280;36264;51.296;-0.602;2023-05-14T14:28:37;101568.44;;;26.71;46.99
50356;BME280;36264;51.296;-0.602;2023-05-14T14:31:02;101570.28;;;26.70;46.99
50356;BME280;36264;51.296;-0.602;2023-05-14T14:33:27;101576.59;;;26.69;47.38
50356;BME280;36264;51.296;-0.602;2023-05-14T14:35:53;101570.69;;;26.66;47.76
50356;BME280;36264;51.296;-0.602;2023-05-14T14:38:18;101570.06;;;26.62;47.68
50356;BME280;36264;51.296;-0.602;2023-05-14T14:40:44;101564.25;;;26.47;46.92
50356;BME280;36264;51.296;-0.602;2023-05-14T14:43:10;101568.13;;;26.64;47.08
50356;BME280;36264;51.296;-0.602;2023-05-14T14:45:35;101570.59;;;26.77;46.88
50356;BME280;36264;51.296;-0.602;2023-05-14T14:48:26;101569.13;;;26.94;44.94
50356;BME280;36264;51.296;-0.602;2023-05-14T14:50:53;101571.84;;;26.73;46.74
50356;BME280;36264;51.296;-0.602;2023-05-14T14:53:19;101557.78;;;26.71;46.28
50356;BME280;36264;51.296;-0.602;2023-05-14T14:55:45;101553.72;;;26.67;46.54
50356;BME280;36264;51.296;-0.602;2023-05-14T14:58:11;101549.72;;;26.82;46.68
50356;BME280;36264;51.296;-0.602;2023-05-14T15:00:36;101545.66;;;26.88;47.06
50356;BME280;36264;51.296;-0.602;2023-05-14T15:03:02;101545.97;;;26.94;46.93
50356;BME280;36264;51.296;-0.602;2023-05-14T15:05:27;101545.97;;;26.94;46.97
50356;BME280;36264;51.296;-0.602;2023-05-14T15:07:52;101542.72;;;26.91;46.96
50356;BME280;36264;51.296;-0.602;2023-05-14T15:10:18;101542.84;;;26.80;45.83
50356;BME280;36264;51.296;-0.602;2023-05-14T15:12:43;101545.41;;;26.91;46.39
50356;BME280;36264;51.296;-0.602;2023-05-14T15:15:09;101542.63;;;27.02;46.62
50356;BME280;36264;51.296;-0.602;2023-05-14T15:17:35;101542.91;;;27.09;46.52
50356;BME280;36264;51.296;-0.602;2023-05-14T15:20:00;101540.56;;;27.06;45.83
50356;BME280;36264;51.296;-0.602;2023-05-14T15:22:25;101530.31;;;27.11;45.93
50356;BME280;36264;51.296;-0.602;2023-05-14T15:24:51;101528.63;;;27.29;46.49
50356;BME280;36264;51.296;-0.602;2023-05-14T15:27:16;101522.66;;;27.47;46.18
50356;BME280;36264;51.296;-0.602;2023-05-14T15:29:42;101518.88;;;27.69;46.25
50356;BME280;36264;51.296;-0.602;2023-05-14T15:32:07;101517.47;;;27.84;45.82
50356;BME280;36264;51.296;-0.602;2023-05-14T15:34:32;101517.91;;;27.99;45.65
50356;BME280;36264;51.296;-0.602;2023-05-14T15:36:58;101516.75;;;28.12;46.12
50356;BME280;36264;51.296;-0.602;2023-05-14T15:39:23;101517.03;;;28.09;45.55
50356;BME280;36264;51.296;-0.602;2023-05-14T15:41:49;101509.31;;;28.06;46.07
50356;BME280;36264;51.296;-0.602;2023-05-14T15:44:14;101513.84;;;27.95;45.61
50356;BME280;36264;51.296;-0.602;2023-05-14T15:46:40;101509.72;;;27.81;45.95
50356;BME280;36264;51.296;-0.602;2023-05-14T15:49:05;101511.72;;;27.70;45.63
50356;BME280;36264;51.296;-0.602;2023-05-14T15:51:31;101511.28;;;27.55;45.69
50356;BME280;36264;51.296;-0.602;2023-05-14T15:53:56;101512.28;;;27.44;45.60
50356;BME280;36264;51.296;-0.602;2023-05-14T15:56:22;101508.31;;;27.28;45.54
50356;BME280;36264;51.296;-0.602;2023-05-14T15:58:48;101506.03;;;27.14;45.44
50356;BME280;36264;51.296;-0.602;2023-05-14T16:01:13;101506.84;;;27.05;45.51
50356;BME280;36264;51.296;-0.602;2023-05-14T16:03:39;101497.16;;;26.94;45.58
50356;BME280;36264;51.296;-0.602;2023-05-14T16:06:04;101497.97;;;26.85;45.18
50356;BME280;36264;51.296;-0.602;2023-05-14T16:08:30;101493.91;;;26.81;45.50
50356;BME280;36264;51.296;-0.602;2023-05-14T16:10:55;101504.69;;;26.79;45.64
50356;BME280;36264;51.296;-0.602;2023-05-14T16:13:20;101497.50;;;26.70;45.89
50356;BME280;36264;51.296;-0.602;2023-05-14T16:15:46;101498.53;;;26.57;45.91
50356;BME280;36264;51.296;-0.602;2023-05-14T16:18:12;101491.09;;;26.51;46.40
50356;BME280;36264;51.296;-0.602;2023-05-14T16:20:37;101485.75;;;26.51;46.55
50356;BME280;36264;51.296;-0.602;2023-05-14T16:23:03;101483.09;;;26.51;46.85
50356;BME280;36264;51.296;-0.602;2023-05-14T16:25:29;101487.06;;;26.57;46.59
50356;BME280;36264;51.296;-0.602;2023-05-14T16:27:55;101481.47;;;26.60;46.74
50356;BME280;36264;51.296;-0.602;2023-05-14T16:30:21;101480.84;;;26.78;46.95
50356;BME280;36264;51.296;-0.602;2023-05-14T16:32:46;101483.69;;;27.05;46.88
50356;BME280;36264;51.296;-0.602;2023-05-14T16:35:14;101479.81;;;27.29;46.77
50356;BME280;36264;51.296;-0.602;2023-05-14T16:37:39;101483.78;;;27.35;43.40
50356;BME280;36264;51.296;-0.602;2023-05-14T16:40:05;101489.38;;;27.51;43.73
50356;BME280;36264;51.296;-0.602;2023-05-14T16:42:31;101478.44;;;27.44;44.78
50356;BME280;36264;51.296;-0.602;2023-05-14T16:44:57;101477.03;;;27.50;44.20
50356;BME280;36264;51.296;-0.602;2023-05-14T16:47:22;101482.53;;;27.58;44.15
50356;BME280;36264;51.296;-0.602;2023-05-14T16:49:48;101483.50;;;27.38;42.38
50356;BME280;36264;51.296;-0.602;2023-05-14T16:52:13;101489.38;;;27.51;43.19
50356;BME280;36264;51.296;-0.602;2023-05-14T16:54:38;101488.28;;;27.44;40.75
50356;BME280;36264;51.296;-0.602;2023-05-14T16:57:04;101485.59;;;27.63;42.18
50356;BME280;36264;51.296;-0.602;2023-05-14T16:59:30;101484.75;;;27.63;42.02
50356;BME280;36264;51.296;-0.602;2023-05-14T17:01:56;101481.81;;;27.76;41.31
50356;BME280;36264;51.296;-0.602;2023-05-14T17:04:22;101484.75;;;27.82;41.27
50356;BME280;36264;51.296;-0.602;2023-05-14T17:06:49;101481.66;;;27.68;41.28
50356;BME280;36264;51.296;-0.602;2023-05-14T17:09:15;101483.63;;;27.56;40.15
50356;BME280;36264;51.296;-0.602;2023-05-14T17:11:41;101479.00;;;27.38;39.77
50356;BME280;36264;51.296;-0.602;2023-05-14T17:14:06;101474.75;;;27.16;41.22
50356;BME280;36264;51.296;-0.602;2023-05-14T17:16:32;101483.69;;;27.05;41.11
50356;BME280;36264;51.296;-0.602;2023-05-14T17:18:57;101472.16;;;26.85;41.17
50356;BME280;36264;51.296;-0.602;2023-05-14T17:21:22;101473.28;;;26.83;41.85
50356;BME280;36264;51.296;-0.602;2023-05-14T17:23:48;101475.66;;;26.76;42.11
50356;BME280;36264;51.296;-0.602;2023-05-14T17:26:13;101470.44;;;26.65;42.23
50356;BME280;36264;51.296;-0.602;2023-05-14T17:28:39;101469.53;;;26.64;42.40
50356;BME280;36264;51.296;-0.602;2023-05-14T17:31:04;101471.06;;;26.57;42.13
50356;BME280;36264;51.296;-0.602;2023-05-14T17:33:30;101471.34;;;26.54;42.53
50356;BME280;36264;51.296;-0.602;2023-05-14T17:35:55;101469.78;;;26.51;42.27
50356;BME280;36264;51.296;-0.602;2023-05-14T17:38:21;101470.16;;;26.47;42.30
50356;BME280;36264;51.296;-0.602;2023-05-14T17:40:46;101468.25;;;26.49;42.86
50356;BME280;36264;51.296;-0.602;2023-05-14T17:43:11;101471.47;;;26.52;43.02
50356;BME280;36264;51.296;-0.602;2023-05-14T17:45:37;101468.81;;;26.52;43.12
50356;BME280;36264;51.296;-0.602;2023-05-14T17:48:03;101469.34;;;26.46;42.96
50356;BME280;36264;51.296;-0.602;2023-05-14T17:50:28;101467.63;;;26.45;42.92
50356;BME280;36264;51.296;-0.602;2023-05-14T17:52:53;101471.44;;;26.43;43.09
50356;BME280;36264;51.296;-0.602;2023-05-14T17:55:19;101474.75;;;26.35;42.57
50356;BME280;36264;51.296;-0.602;2023-05-14T17:57:44;101468.03;;;26.40;43.03
50356;BME280;36264;51.296;-0.602;2023-05-14T18:00:11;101457.47;;;26.29;43.23
50356;BME280;36264;51.296;-0.602;2023-05-14T18:02:37;101472.72;;;26.17;43.44
50356;BME280;36264;51.296;-0.602;2023-05-14T18:05:02;101470.72;;;26.10;43.75
50356;BME280;36264;51.296;-0.602;2023-05-14T18:07:28;101465.47;;;25.98;43.77
50356;BME280;36264;51.296;-0.602;2023-05-14T18:09:54;101467.16;;;25.88;43.62
50356;BME280;36264;51.296;-0.602;2023-05-14T18:12:20;101470.22;;;25.83;43.64
50356;BME280;36264;51.296;-0.602;2023-05-14T18:14:45;101472.03;;;25.83;43.78
50356;BME280;36264;51.296;-0.602;2023-05-14T18:17:11;101460.44;;;25.84;43.98
50356;BME280;36264;51.296;-0.602;2023-05-14T18:19:36;101474.97;;;25.80;43.94
50356;BME280;36264;51.296;-0.602;2023-05-14T18:22:01;101470.78;;;25.66;43.69
50356;BME280;36264;51.296;-0.602;2023-05-14T18:24:27;101476.91;;;25.57;43.60
50356;BME280;36264;51.296;-0.602;2023-05-14T18:26:53;101477.63;;;25.59;43.65
50356;BME280;36264;51.296;-0.602;2023-05-14T18:29:18;101475.13;;;25.46;43.27
50356;BME280;36264;51.296;-0.602;2023-05-14T18:31:44;101477.84;;;25.35;43.25
50356;BME280;36264;51.296;-0.602;2023-05-14T18:34:09;101486.66;;;25.35;43.28
50356;BME280;36264;51.296;-0.602;2023-05-14T18:36:36;101483.25;;;25.22;43.31
50356;BME280;36264;51.296;-0.602;2023-05-14T18:39:01;101487.88;;;25.20;43.07
50356;BME280;36264;51.296;-0.602;2023-05-14T18:41:26;101489.09;;;25.04;42.62
50356;BME280;36264;51.296;-0.602;2023-05-14T18:43:52;101488.06;;;24.95;42.52
50356;BME280;36264;51.296;-0.602;2023-05-14T18:46:17;101481.91;;;24.95;42.44
50356;BME280;36264;51.296;-0.602;2023-05-14T18:48:43;101476.97;;;24.90;42.59
50356;BME280;36264;51.296;-0.602;2023-05-14T18:51:08;101481.03;;;24.94;42.38
50356;BME280;36264;51.296;-0.602;2023-05-14T18:53:35;101471.88;;;24.87;42.69
50356;BME280;36264;51.296;-0.602;2023-05-14T18:56:00;101486.63;;;24.80;42.46
50356;BME280;36264;51.296;-0.602;2023-05-14T18:58:26;101489.41;;;24.78;42.43
50356;BME280;36264;51.296;-0.602;2023-05-14T19:00:52;101484.56;;;24.72;42.79
50356;BME280;36264;51.296;-0.602;2023-05-14T19:03:17;101483.03;;;24.70;42.89
50356;BME280;36264;51.296;-0.602;2023-05-14T19:05:44;101486.50;;;24.70;42.81
50356;BME280;36264;51.296;-0.602;2023-05-14T19:08:11;101482.50;;;24.65;42.69
50356;BME280;36264;51.296;-0.602;2023-05-14T19:10:36;101473.81;;;24.51;42.65
50356;BME280;36264;51.296;-0.602;2023-05-14T19:13:02;101478.03;;;24.54;42.58
50356;BME280;36264;51.296;-0.602;2023-05-14T19:15:27;101486.97;;;24.53;42.87
50356;BME280;36264;51.296;-0.602;2023-05-14T19:17:53;101475.75;;;24.49;42.92
50356;BME280;36264;51.296;-0.602;2023-05-14T19:20:19;101482.97;;;24.47;42.99
50356;BME280;36264;51.296;-0.602;2023-05-14T19:22:45;101481.53;;;24.43;42.95
50356;BME280;36264;51.296;-0.602;2023-05-14T19:25:11;101480.81;;;24.41;43.05
50356;BME280;36264;51.296;-0.602;2023-05-14T19:27:37;101469.22;;;24.31;43.31
50356;BME280;36264;51.296;-0.602;2023-05-14T19:30:03;101482.00;;;24.37;43.46
50356;BME280;36264;51.296;-0.602;2023-05-14T19:32:29;101486.97;;;24.30;43.93
50356;BME280;36264;51.296;-0.602;2023-05-14T19:34:55;101489.38;;;24.22;43.99
50356;BME280;36264;51.296;-0.602;2023-05-14T19:37:21;101487.19;;;24.16;44.49
50356;BME280;36264;51.296;-0.602;2023-05-14T19:39:47;101493.44;;;24.03;44.47
50356;BME280;36264;51.296;-0.602;2023-05-14T19:42:12;101495.81;;;23.95;44.69
50356;BME280;36264;51.296;-0.602;2023-05-14T20:44:07;101501.38;;;23.44;43.54
50356;BME280;36264;51.296;-0.602;2023-05-14T20:46:32;101498.09;;;23.40;43.17
50356;BME280;36264;51.296;-0.602;2023-05-14T20:49:00;101499.25;;;23.49;43.24
50356;BME280;36264;51.296;-0.602;2023-05-14T20:51:26;101494.50;;;23.41;43.27
50356;BME280;36264;51.296;-0.602;2023-05-14T20:53:51;101496.94;;;23.44;43.24
50356;BME280;36264;51.296;-0.602;2023-05-14T20:56:17;101490.75;;;23.44;43.31
50356;BME280;36264;51.296;-0.602;2023-05-14T20:58:43;101497.03;;;23.43;43.89
50356;BME280;36264;51.296;-0.602;2023-05-14T21:01:09;101481.09;;;23.31;43.90
50356;BME280;36264;51.296;-0.602;2023-05-14T21:03:35;101489.25;;;23.28;44.20
50356;BME280;36264;51.296;-0.602;2023-05-14T21:06:01;101491.38;;;23.23;44.68
50356;BME280;36264;51.296;-0.602;2023-05-14T21:08:27;101489.72;;;23.22;44.60
50356;BME280;36264;51.296;-0.602;2023-05-14T21:10:53;101493.97;;;23.12;45.10
50356;BME280;36264;51.296;-0.602;2023-05-14T21:13:18;101490.78;;;23.07;45.36
50356;BME280;36264;51.296;-0.602;2023-05-14T21:15:44;101491.34;;;22.99;45.27
50356;BME280;36264;51.296;-0.602;2023-05-14T21:18:10;101489.50;;;23.00;45.53
50356;BME280;36264;51.296;-0.602;2023-05-14T21:20:36;101489.97;;;22.93;45.29
50356;BME280;36264;51.296;-0.602;2023-05-14T21:23:01;101493.59;;;22.92;45.26
50356;BME280;36264;51.296;-0.602;2023-05-14T21:25:26;101493.59;;;22.79;45.12
50356;BME280;36264;51.296;-0.602;2023-05-14T21:27:52;101490.84;;;22.81;44.42
50356;BME280;36264;51.296;-0.602;2023-05-14T21:30:17;101497.66;;;22.59;44.69
50356;BME280;36264;51.296;-0.602;2023-05-14T21:32:43;101495.50;;;22.77;44.10
50356;BME280;36264;51.296;-0.602;2023-05-14T21:35:08;101491.78;;;22.80;43.78
50356;BME280;36264;51.296;-0.602;2023-05-14T21:37:34;101494.03;;;22.73;43.40
50356;BME280;36264;51.296;-0.602;2023-05-14T21:39:59;101494.16;;;22.72;43.81
50356;BME280;36264;51.296;-0.602;2023-05-14T21:42:25;101494.56;;;22.66;43.81
50356;BME280;36264;51.296;-0.602;2023-05-14T21:44:50;101503.13;;;22.82;43.84
50356;BME280;36264;51.296;-0.602;2023-05-14T21:47:16;101498.38;;;22.87;43.98
50356;BME280;36264;51.296;-0.602;2023-05-14T21:49:41;101498.69;;;22.83;43.58
50356;BME280;36264;51.296;-0.602;2023-05-14T21:52:07;101497.59;;;22.85;43.77
50356;BME280;36264;51.296;-0.602;2023-05-14T21:54:32;101493.72;;;22.78;43.78
50356;BME280;36264;51.296;-0.602;2023-05-14T21:56:58;101493.09;;;22.61;43.39
50356;BME280;36264;51.296;-0.602;2023-05-14T21:59:23;101490.22;;;22.65;43.73
50356;BME280;36264;51.296;-0.602;2023-05-14T22:01:49;101484.81;;;22.66;43.84
50356;BME280;36264;51.296;-0.602;2023-05-14T22:04:14;101495.75;;;22.74;44.09
50356;BME280;36264;51.296;-0.602;2023-05-14T22:06:40;101492.66;;;22.68;44.36
50356;BME280;36264;51.296;-0.602;2023-05-14T22:09:06;101492.97;;;22.63;44.16
50356;BME280;36264;51.296;-0.602;2023-05-14T22:11:31;101478.38;;;22.70;44.41
50356;BME280;36264;51.296;-0.602;2023-05-14T22:13:56;101485.59;;;22.68;44.39
50356;BME280;36264;51.296;-0.602;2023-05-14T22:16:22;101489.78;;;22.71;44.40
50356;BME280;36264;51.296;-0.602;2023-05-14T22:18:50;101485.47;;;22.57;44.26
50356;BME280;36264;51.296;-0.602;2023-05-14T22:21:15;101481.47;;;22.51;44.68
50356;BME280;36264;51.296;-0.602;2023-05-14T22:23:41;101481.88;;;22.45;44.73
50356;BME280;36264;51.296;-0.602;2023-05-14T22:26:06;101484.94;;;22.52;44.59
50356;BME280;36264;51.296;-0.602;2023-05-14T22:28:32;101484.00;;;22.40;44.79
50356;BME280;36264;51.296;-0.602;2023-05-14T22:30:57;101495.34;;;22.42;44.74
50356;BME280;36264;51.296;-0.602;2023-05-14T22:33:23;101488.03;;;22.46;44.95
50356;BME280;36264;51.296;-0.602;2023-05-14T22:35:49;101480.84;;;22.35;45.23
50356;BME280;36264;51.296;-0.602;2023-05-14T22:38:15;101479.25;;;22.45;45.03
50356;BME280;36264;51.296;-0.602;2023-05-14T22:40:40;101483.16;;;22.52;44.88
50356;BME280;36264;51.296;-0.602;2023-05-14T22:43:06;101486.13;;;22.48;45.02
50356;BME280;36264;51.296;-0.602;2023-05-14T22:45:31;101493.00;;;22.50;45.03
50356;BME280;36264;51.296;-0.602;2023-05-14T22:47:57;101491.75;;;22.43;45.40
50356;BME280;36264;51.296;-0.602;2023-05-14T22:50:22;101481.56;;;22.50;45.33
50356;BME280;36264;51.296;-0.602;2023-05-14T22:52:48;101475.34;;;22.51;45.30
50356;BME280;36264;51.296;-0.602;2023-05-14T22:55:13;101476.06;;;22.53;45.68
50356;BME280;36264;51.296;-0.602;2023-05-14T22:57:38;101473.53;;;22.51;45.22
50356;BME280;36264;51.296;-0.602;2023-05-14T23:00:05;101478.81;;;22.51;45.42
50356;BME280;36264;51.296;-0.602;2023-05-14T23:02:30;101471.41;;;22.43;45.39
50356;BME280;36264;51.296;-0.602;2023-05-14T23:04:56;101471.63;;;22.40;45.83
50356;BME280;36264;51.296;-0.602;2023-05-14T23:07:21;101477.31;;;22.47;45.59
50356;BME280;36264;51.296;-0.602;2023-05-14T23:09:47;101472.91;;;22.48;45.88
50356;BME280;36264;51.296;-0.602;2023-05-14T23:12:12;101468.34;;;22.37;46.04
50356;BME280;36264;51.296;-0.602;2023-05-14T23:14:37;101464.75;;;22.38;46.12
50356;BME280;36264;51.296;-0.602;2023-05-14T23:17:03;101468.13;;;22.27;46.21
50356;BME280;36264;51.296;-0.602;2023-05-14T23:19:28;101469.16;;;22.24;45.92
50356;BME280;36264;51.296;-0.602;2023-05-14T23:21:54;101467.56;;;22.22;46.32
50356;BME280;36264;51.296;-0.602;2023-05-14T23:24:19;101476.88;;;22.28;46.15
50356;BME280;36264;51.296;-0.602;2023-05-14T23:26:44;101466.84;;;22.33;46.02
50356;BME280;36264;51.296;-0.602;2023-05-14T23:29:10;101475.78;;;22.32;46.15
50356;BME280;36264;51.296;-0.602;2023-05-14T23:31:35;101471.41;;;22.31;46.09
50356;BME280;36264;51.296;-0.602;2023-05-14T23:34:01;101463.66;;;22.28;46.24
50356;BME280;36264;51.296;-0.602;2023-05-14T23:36:27;101468.94;;;22.28;46.04
50356;BME280;36264;51.296;-0.602;2023-05-14T23:38:58;101477.31;;;22.08;46.90
50356;BME280;36264;51.296;-0.602;2023-05-14T23:41:23;101473.06;;;22.06;46.91
50356;BME280;36264;51.296;-0.602;2023-05-14T23:43:49;101475.91;;;22.03;47.04
50356;BME280;36264;51.296;-0.602;2023-05-14T23:46:14;101477.72;;;22.02;47.06
50356;BME280;36264;51.296;-0.602;2023-05-14T23:48:40;101473.25;;;22.03;47.47
50356;BME280;36264;51.296;-0.602;2023-05-14T23:51:06;101481.44;;;22.00;47.54
50356;BME280;36264;51.296;-0.602;2023-05-14T23:53:31;101479.63;;;22.00;47.39
50356;BME280;36264;51.296;-0.602;2023-05-14T23:55:57;101477.94;;;21.99;47.39
50356;BME280;36264;51.296;-0.602;2023-05-14T23:58:22;101472.53;;;22.01;47.04
